FMCZ

Dzaoudzi Pamandzi International Airport

Dzaoudzi, Mayotte
METAR FMCZ 211300Z 16011KT 9999 SCT023 28/20 Q1018 NOSIG
Observed Flight Rules
Jul-21 @ 13:00 UTC (37 minutes ago) Visual Flight Rules
Wind Visibility Clouds
160° at 11 knots 10,000+ meters
  • Scattered at 2,300' AGL
Temperatures Readings
Current 28°C / 82°F
Dewpoint 20°C / 68°F
Humidity 62%
Altimeter 30.06" Hg
Pressure 1018 hPa
Elevation 7
METAR FMCZ 211300Z 16011KT 9999 SCT023 28/20 Q1018 NOSIG
Observed Flight Rules
Jul-21 @ 13:00 UTC
(37 minutes ago)
VFR
Wind Visibility
160° at 11 knots 10,000+ meters
Clouds
  • Scattered at 2,300' AGL
Temperature Dewpoint
28°C / 82°F 20°C / 68°F
Humidity Altimeter Pressure
62% 30.06" Hg 1018 hPa